EBBR/BRU METAR and TAF weather

Enter ICAO airport designator
Station Type Date Time Source
EBBR METAR 2021/01/27 12:50 UTC NOAA

EBBR 271250Z 23009KT 6000 BKN005 04/04 Q1012 TEMPO 3500 -DZ BR


Station Type Date Time Source
EBBR Decoded METAR 2021/01/27 12:50 UTC NOAA

Bruxelles National, Belgium (EBBR) 50-54N 004-32E 58M
Jan 27, 2021 - 07:50 AM EST / 2021.01.27 1250 UTC
Wind: from the SW (230 degrees) at 10 MPH (9 KT):0
Visibility: 3 mile(s):0
Sky conditions: mostly cloudy
Temperature: 39 F (4 C)
Dew Point: 39 F (4 C)
Relative Humidity: 100%
Pressure (altimeter): 29.88 in. Hg (1012 hPa)
ob: EBBR 271250Z 23009KT 6000 BKN005 04/04 Q1012 TEMPO 3500 -DZ BR
cycle: 13

Station Type Date Time Source
EBBR TAF 2021/01/27 12:27 UTC NOAA

TAF TAF EBBR 271110Z 2712/2818 22008KT 6000 SCT004 BKN008
TEMPO 2712/2714 1500 DZ BR BKN003 PROB30
TEMPO 2714/2801 2500 -DZ BR BKN004
TEMPO 2801/2812 2500 RADZ BKN004
BECMG 2812/2814 26015G25KT BKN016

Example: see airport list